createdAt,value
2018-02-22T00:00:34.280Z,0.00
2018-02-22T00:02:26.014Z,0.00
2018-02-22T00:03:25.929Z,0.00
2018-02-22T00:05:17.681Z,0.00
2018-02-22T00:06:17.595Z,0.00
2018-02-22T00:08:09.363Z,0.00
2018-02-22T00:09:09.286Z,0.00
2018-02-22T00:11:01.009Z,0.00
2018-02-22T00:12:00.934Z,0.00
2018-02-22T00:13:52.705Z,0.00
2018-02-22T00:14:52.617Z,0.00
2018-02-22T00:16:44.441Z,0.00
2018-02-22T00:17:44.358Z,0.00
2018-02-22T00:19:36.093Z,0.00
2018-02-22T00:20:35.954Z,0.00
2018-02-22T00:22:27.757Z,0.00
2018-02-22T00:23:27.645Z,0.00
2018-02-22T00:25:19.417Z,0.00
2018-02-22T00:26:19.324Z,0.00
2018-02-22T00:28:11.103Z,0.00
2018-02-22T00:29:11.008Z,0.00
2018-02-22T00:31:02.840Z,0.00
2018-02-22T00:32:02.765Z,0.00
2018-02-22T00:33:54.484Z,0.00
2018-02-22T00:34:54.398Z,0.00
2018-02-22T00:36:46.172Z,0.00
2018-02-22T00:37:46.085Z,0.00
2018-02-22T00:39:37.859Z,0.00
2018-02-22T00:40:37.807Z,0.00
2018-02-22T00:42:29.540Z,0.00
2018-02-22T00:43:29.458Z,0.00
2018-02-22T00:45:21.227Z,0.00
2018-02-22T00:46:21.143Z,0.00
2018-02-22T00:48:12.907Z,0.00
2018-02-22T00:49:12.908Z,0.00
2018-02-22T00:51:04.591Z,0.00
2018-02-22T00:52:04.507Z,0.00
2018-02-22T00:53:56.232Z,0.00
2018-02-22T00:54:56.173Z,0.00
2018-02-22T00:56:47.947Z,0.00
2018-02-22T00:57:47.858Z,0.00
2018-02-22T00:59:39.680Z,0.00
2018-02-22T01:00:39.576Z,0.00
2018-02-22T01:02:31.317Z,0.00
2018-02-22T01:03:31.241Z,0.00
2018-02-22T01:05:23.008Z,0.00
2018-02-22T01:06:22.957Z,0.00
2018-02-22T01:08:14.711Z,0.00
2018-02-22T01:09:14.640Z,0.00
2018-02-22T01:11:06.400Z,0.00
2018-02-22T01:12:06.316Z,0.00
2018-02-22T01:13:58.056Z,0.00
2018-02-22T01:14:57.980Z,0.00
2018-02-22T01:16:49.733Z,0.00
2018-02-22T01:17:49.666Z,0.00
2018-02-22T01:19:41.396Z,0.00
2018-02-22T01:20:41.318Z,0.00
2018-02-22T01:22:33.198Z,0.00
2018-02-22T01:23:33.019Z,0.00
2018-02-22T01:25:24.858Z,0.00
2018-02-22T01:26:24.743Z,0.00
2018-02-22T01:28:16.475Z,0.00
2018-02-22T01:29:16.389Z,0.00
2018-02-22T01:31:08.126Z,0.00
2018-02-22T01:32:08.049Z,0.00
2018-02-22T01:33:59.921Z,0.00
2018-02-22T01:34:59.714Z,0.00
2018-02-22T01:36:51.493Z,0.00
2018-02-22T01:37:51.397Z,0.00
2018-02-22T01:39:43.220Z,0.00
2018-02-22T01:40:43.104Z,0.00
2018-02-22T01:42:34.840Z,0.00
2018-02-22T01:43:35.281Z,0.00
2018-02-22T01:45:26.560Z,0.00
2018-02-22T01:46:26.476Z,0.00
2018-02-22T01:48:18.218Z,0.00
2018-02-22T01:49:18.132Z,0.00
2018-02-22T01:51:09.899Z,0.00
2018-02-22T01:52:09.820Z,0.00
2018-02-22T01:54:01.591Z,0.00
2018-02-22T01:55:01.482Z,0.00
2018-02-22T01:56:53.264Z,0.00
2018-02-22T01:57:53.189Z,0.00
2018-02-22T01:59:45.014Z,0.00
2018-02-22T02:00:44.863Z,0.00
2018-02-22T02:02:36.663Z,0.00
2018-02-22T02:03:36.520Z,0.00
2018-02-22T02:05:28.279Z,0.00
2018-02-22T02:06:28.217Z,0.00
2018-02-22T02:08:19.971Z,0.00
2018-02-22T02:09:19.982Z,0.00
2018-02-22T02:11:11.646Z,0.00
2018-02-22T02:12:11.550Z,0.00
2018-02-22T02:14:03.423Z,0.00
2018-02-22T02:15:03.226Z,0.00
2018-02-22T02:16:55.026Z,0.00
2018-02-22T02:17:54.900Z,0.00
2018-02-22T02:19:46.704Z,0.00
2018-02-22T02:20:46.619Z,0.00
2018-02-22T02:22:38.402Z,0.00
2018-02-22T02:23:38.303Z,0.00
2018-02-22T02:25:30.106Z,0.00
2018-02-22T02:26:30.003Z,0.00
2018-02-22T02:28:21.683Z,0.00
2018-02-22T02:29:21.625Z,0.00
2018-02-22T02:31:13.374Z,0.00
2018-02-22T02:32:13.278Z,0.00
2018-02-22T02:34:05.054Z,0.00
2018-02-22T02:35:04.966Z,0.00
2018-02-22T02:36:56.719Z,0.00
2018-02-22T02:37:56.650Z,0.00
2018-02-22T02:39:48.415Z,0.00
2018-02-22T02:40:48.333Z,0.00
2018-02-22T02:42:40.090Z,0.00
2018-02-22T02:43:39.958Z,0.00
2018-02-22T02:45:31.733Z,0.00
2018-02-22T02:46:31.616Z,0.00
2018-02-22T02:48:23.361Z,0.00
2018-02-22T02:49:23.292Z,0.00
2018-02-22T02:51:15.102Z,0.00
2018-02-22T02:52:14.968Z,0.00
2018-02-22T02:54:06.699Z,0.00
2018-02-22T02:55:06.638Z,0.00
2018-02-22T02:56:58.389Z,0.00
2018-02-22T02:57:58.299Z,0.00
2018-02-22T02:59:50.022Z,0.00
2018-02-22T03:00:49.958Z,0.00
2018-02-22T03:02:41.734Z,0.00
2018-02-22T03:03:41.618Z,0.00
2018-02-22T03:05:33.370Z,0.00
2018-02-22T03:06:33.305Z,0.00
2018-02-22T03:08:25.068Z,0.00
2018-02-22T03:09:25.078Z,0.00
2018-02-22T03:11:16.749Z,0.00
2018-02-22T03:12:16.638Z,0.00
2018-02-22T03:14:08.398Z,0.00
2018-02-22T03:15:08.326Z,0.00
2018-02-22T03:17:00.065Z,0.00
2018-02-22T03:17:59.970Z,0.00
2018-02-22T03:19:51.756Z,0.00
2018-02-22T03:20:51.664Z,0.00
2018-02-22T03:22:43.395Z,0.00
2018-02-22T03:23:43.311Z,0.00
2018-02-22T03:25:35.066Z,0.00
2018-02-22T03:26:34.981Z,0.00
2018-02-22T03:28:26.728Z,0.00
2018-02-22T03:29:26.637Z,0.00
2018-02-22T03:31:18.365Z,0.00
2018-02-22T03:32:18.297Z,0.00
2018-02-22T03:34:10.056Z,0.00
2018-02-22T03:35:09.958Z,0.00
2018-02-22T03:37:01.722Z,0.00
2018-02-22T03:38:01.644Z,0.00
2018-02-22T03:39:53.432Z,0.00
2018-02-22T03:40:53.341Z,0.00
2018-02-22T03:42:45.127Z,0.00
2018-02-22T03:43:45.037Z,0.00
2018-02-22T03:45:36.784Z,0.00
2018-02-22T03:46:36.686Z,0.00
2018-02-22T03:48:28.463Z,0.00
2018-02-22T03:49:28.381Z,0.00
2018-02-22T03:51:20.134Z,0.00
2018-02-22T03:52:20.037Z,0.00
2018-02-22T03:54:11.889Z,0.00
2018-02-22T03:55:11.716Z,0.00
2018-02-22T03:57:03.485Z,0.00
2018-02-22T03:58:03.410Z,0.00
2018-02-22T03:59:55.195Z,0.00
2018-02-22T04:00:55.102Z,0.00
2018-02-22T04:02:46.866Z,0.00
2018-02-22T04:03:46.789Z,0.00
2018-02-22T04:05:38.566Z,0.00
2018-02-22T04:06:38.489Z,0.00
2018-02-22T04:08:30.198Z,0.00
2018-02-22T04:09:30.117Z,0.00
2018-02-22T04:11:21.884Z,0.00
2018-02-22T04:12:21.798Z,0.00
2018-02-22T04:14:13.546Z,0.00
2018-02-22T04:15:13.464Z,0.00
2018-02-22T04:17:05.232Z,0.00
2018-02-22T04:18:05.139Z,0.00
2018-02-22T04:19:56.901Z,0.00
2018-02-22T04:20:56.825Z,0.00
2018-02-22T04:22:48.562Z,0.00
2018-02-22T04:23:48.488Z,0.00
2018-02-22T04:25:40.274Z,0.00
2018-02-22T04:26:40.161Z,0.00
2018-02-22T04:28:31.932Z,0.00
2018-02-22T04:29:31.857Z,0.00
2018-02-22T04:31:23.686Z,0.00
2018-02-22T04:32:23.593Z,0.00
2018-02-22T04:34:15.345Z,0.00
2018-02-22T04:35:15.268Z,0.00
2018-02-22T04:37:07.001Z,0.00
2018-02-22T04:38:06.919Z,0.00
2018-02-22T04:39:58.680Z,0.00
2018-02-22T04:40:58.597Z,0.00
2018-02-22T04:42:50.352Z,0.00
2018-02-22T04:43:50.258Z,0.00
2018-02-22T04:45:42.030Z,0.00
2018-02-22T04:46:41.939Z,0.00
2018-02-22T04:48:33.717Z,0.00
2018-02-22T04:49:33.627Z,0.00
2018-02-22T04:51:25.406Z,0.00
2018-02-22T04:52:25.343Z,0.00
2018-02-22T04:54:17.066Z,0.00
2018-02-22T04:55:16.974Z,0.00
2018-02-22T04:57:08.740Z,0.00
2018-02-22T04:58:08.659Z,0.00
2018-02-22T05:00:00.450Z,0.00
2018-02-22T05:01:00.317Z,0.00
2018-02-22T05:02:52.089Z,0.00
2018-02-22T05:03:52.001Z,0.00
2018-02-22T05:05:43.739Z,0.00
2018-02-22T05:06:43.666Z,0.00
2018-02-22T05:08:35.429Z,0.00
2018-02-22T05:09:35.344Z,0.00
2018-02-22T05:11:27.062Z,0.00
2018-02-22T05:12:26.982Z,0.00
2018-02-22T05:14:18.763Z,0.00
2018-02-22T05:15:18.655Z,0.00
2018-02-22T05:17:10.399Z,0.00
2018-02-22T05:18:10.315Z,0.00
2018-02-22T05:20:02.097Z,0.00
2018-02-22T05:21:01.988Z,0.00
2018-02-22T05:22:53.724Z,0.00
2018-02-22T05:23:53.639Z,0.00
2018-02-22T05:25:45.387Z,0.00
2018-02-22T05:26:45.300Z,0.00
2018-02-22T05:28:37.113Z,0.00
2018-02-22T05:29:36.987Z,4.00
2018-02-22T05:31:28.754Z,4.00
2018-02-22T05:32:28.662Z,0.00
2018-02-22T05:34:20.440Z,4.00
2018-02-22T05:35:20.377Z,4.00
2018-02-22T05:37:12.107Z,4.00
2018-02-22T05:38:12.049Z,4.00
2018-02-22T05:40:03.803Z,8.00
2018-02-22T05:41:03.731Z,8.00
2018-02-22T05:42:55.449Z,12.00
2018-02-22T05:43:55.380Z,16.00
2018-02-22T05:45:47.184Z,20.00
2018-02-22T05:46:47.070Z,24.00
2018-02-22T05:48:38.867Z,32.00
2018-02-22T05:49:38.737Z,40.00
2018-02-22T05:51:30.503Z,52.00
2018-02-22T05:52:30.421Z,60.00
2018-02-22T05:54:22.240Z,76.00
2018-02-22T05:55:22.104Z,88.00
2018-02-22T05:57:13.995Z,112.00
2018-02-22T05:58:13.784Z,128.00
2018-02-22T06:00:05.611Z,164.00
2018-02-22T06:01:05.513Z,184.00
2018-02-22T06:02:57.268Z,228.00
2018-02-22T06:03:57.178Z,252.00
2018-02-22T06:05:48.917Z,308.00
2018-02-22T06:06:48.880Z,340.00
2018-02-22T06:08:40.671Z,404.00
2018-02-22T06:09:40.539Z,448.00
2018-02-22T06:11:32.300Z,528.00
2018-02-22T06:12:32.222Z,572.00
2018-02-22T06:14:23.969Z,660.00
2018-02-22T06:15:23.979Z,708.00
2018-02-22T06:17:15.707Z,812.00
2018-02-22T06:18:15.630Z,872.00
2018-02-22T06:20:07.372Z,1004.00
2018-02-22T06:21:07.288Z,1072.00
2018-02-22T06:22:59.086Z,1208.00
2018-02-22T06:23:58.962Z,1288.00
2018-02-22T06:25:50.758Z,1440.00
2018-02-22T06:26:50.670Z,1528.00
2018-02-22T06:28:42.496Z,1700.00
2018-02-22T06:29:42.340Z,1796.00
2018-02-22T06:31:34.130Z,1992.00
2018-02-22T06:32:34.034Z,2104.00
2018-02-22T06:34:25.802Z,2308.00
2018-02-22T06:35:25.706Z,2428.00
2018-02-22T06:37:17.478Z,2648.00
2018-02-22T06:38:17.441Z,2768.00
2018-02-22T06:40:09.275Z,3012.00
2018-02-22T06:41:09.193Z,3128.00
2018-02-22T06:43:01.177Z,3356.00
2018-02-22T06:44:01.076Z,3488.00
2018-02-22T06:45:52.824Z,3708.00
2018-02-22T06:46:52.755Z,3828.00
2018-02-22T06:48:44.554Z,4088.00
2018-02-22T06:49:44.461Z,4212.00
2018-02-22T06:51:36.199Z,4468.00
2018-02-22T06:52:36.131Z,4592.00
2018-02-22T06:54:28.040Z,4844.00
2018-02-22T06:55:27.791Z,4960.00
2018-02-22T06:57:19.537Z,5184.00
2018-02-22T06:58:19.480Z,5312.00
2018-02-22T07:00:11.228Z,5572.00
2018-02-22T07:01:11.141Z,5724.00
2018-02-22T07:03:02.882Z,5976.00
2018-02-22T07:04:02.805Z,6096.00
2018-02-22T07:05:54.552Z,6364.00
2018-02-22T07:06:54.462Z,6460.00
2018-02-22T07:08:46.249Z,6720.00
2018-02-22T07:09:46.193Z,6832.00
2018-02-22T07:11:37.933Z,7048.00
2018-02-22T07:12:37.844Z,7160.00
2018-02-22T07:14:29.798Z,7336.00
2018-02-22T07:15:29.660Z,7436.00
2018-02-22T07:17:21.471Z,7676.00
2018-02-22T07:18:21.367Z,7748.00
2018-02-22T07:20:13.120Z,7888.00
2018-02-22T07:21:13.041Z,8032.00
2018-02-22T07:23:16.649Z,8332.00
2018-02-22T07:24:04.673Z,8464.00
2018-02-22T07:25:56.428Z,8720.00
2018-02-22T07:26:56.344Z,8776.00
2018-02-22T07:28:48.158Z,9680.00
2018-02-22T07:29:48.068Z,11556.00
2018-02-22T07:31:39.887Z,22048.00
2018-02-22T07:32:39.794Z,24480.00
2018-02-22T07:34:31.549Z,28608.00
2018-02-22T07:35:31.475Z,28640.00
2018-02-22T07:37:23.251Z,27232.00
2018-02-22T07:38:23.158Z,19424.00
2018-02-22T07:40:14.909Z,16896.00
2018-02-22T07:41:14.803Z,22848.00
2018-02-22T07:43:06.582Z,24480.00
2018-02-22T07:44:06.508Z,25472.00
2018-02-22T07:45:58.290Z,26688.00
2018-02-22T07:46:58.212Z,25568.00
2018-02-22T07:48:50.135Z,34080.00
2018-02-22T07:49:50.066Z,39808.00
2018-02-22T07:51:41.836Z,38208.00
2018-02-22T07:52:41.718Z,34592.00
2018-02-22T07:54:33.776Z,34144.00
2018-02-22T07:55:33.484Z,31040.00
2018-02-22T07:57:25.325Z,28480.00
2018-02-22T07:58:25.309Z,28096.00
2018-02-22T08:00:17.001Z,33280.00
2018-02-22T08:01:16.955Z,37088.00
2018-02-22T08:03:08.731Z,40832.00
2018-02-22T08:04:08.612Z,45536.00
2018-02-22T08:06:00.442Z,56160.00
2018-02-22T08:07:00.365Z,57888.00
2018-02-22T08:08:52.445Z,42720.00
2018-02-22T08:09:52.057Z,33696.00
2018-02-22T08:11:43.818Z,38880.00
2018-02-22T08:12:43.760Z,44160.00
2018-02-22T08:14:35.568Z,54528.00
2018-02-22T08:15:35.468Z,51072.00
2018-02-22T08:17:27.242Z,39040.00
2018-02-22T08:18:27.171Z,37152.00
2018-02-22T08:20:19.043Z,41536.00
2018-02-22T08:21:18.862Z,41056.00
2018-02-22T08:23:10.681Z,39168.00
2018-02-22T08:24:10.566Z,33888.00
2018-02-22T08:26:02.349Z,53024.00
2018-02-22T08:27:02.253Z,38784.00
2018-02-22T08:28:54.046Z,32896.00
2018-02-22T08:29:53.988Z,25344.00
2018-02-22T08:31:45.801Z,37920.00
2018-02-22T08:32:45.718Z,30976.00
2018-02-22T08:34:37.431Z,43488.00
2018-02-22T08:35:37.363Z,43232.00
2018-02-22T08:37:29.137Z,47840.00
2018-02-22T08:38:29.090Z,50784.00
2018-02-22T08:40:20.873Z,57856.00
2018-02-22T08:41:20.910Z,65696.00
2018-02-22T08:43:12.606Z,56608.00
2018-02-22T08:44:12.562Z,52576.00
2018-02-22T08:46:04.290Z,62176.00
2018-02-22T08:47:04.217Z,59872.00
2018-02-22T08:48:56.105Z,70304.00
2018-02-22T08:49:55.949Z,56608.00
2018-02-22T08:51:47.756Z,62720.00
2018-02-22T08:52:47.750Z,46464.00
2018-02-22T08:54:39.549Z,77472.00
2018-02-22T08:55:39.430Z,74656.00
2018-02-22T08:57:31.273Z,72992.00
2018-02-22T08:58:31.170Z,76160.00
2018-02-22T09:00:23.002Z,43456.00
2018-02-22T09:01:22.915Z,56448.00
2018-02-22T09:03:14.683Z,33088.00
2018-02-22T09:04:14.607Z,49792.00
2018-02-22T09:06:06.397Z,45472.00
2018-02-22T09:07:06.319Z,36256.00
2018-02-22T09:08:58.099Z,37248.00
2018-02-22T09:09:58.021Z,76288.00
2018-02-22T09:11:49.840Z,58176.00
2018-02-22T09:12:49.770Z,53344.00
2018-02-22T09:14:41.606Z,38304.00
2018-02-22T09:15:41.527Z,57088.00
2018-02-22T09:17:33.315Z,56512.00
2018-02-22T09:18:33.265Z,54752.00
2018-02-22T09:20:25.078Z,72576.00
2018-02-22T09:21:25.028Z,46720.00
2018-02-22T09:23:16.911Z,44384.00
2018-02-22T09:24:16.760Z,36448.00
2018-02-22T09:26:08.566Z,34560.00
2018-02-22T09:27:08.529Z,52320.00
2018-02-22T09:29:00.326Z,57056.00
2018-02-22T09:30:00.209Z,55424.00
2018-02-22T09:31:52.035Z,63264.00
2018-02-22T09:32:51.944Z,61280.00
2018-02-22T09:34:43.729Z,48672.00
2018-02-22T09:35:43.688Z,56928.00
2018-02-22T09:37:35.488Z,70016.00
2018-02-22T09:38:35.437Z,64864.00
2018-02-22T09:40:27.182Z,60672.00
2018-02-22T09:41:27.108Z,60320.00
2018-02-22T09:43:18.887Z,60832.00
2018-02-22T09:44:18.866Z,52192.00
2018-02-22T09:46:10.619Z,49152.00
2018-02-22T09:47:10.617Z,58752.00
2018-02-22T09:49:02.318Z,68288.00
2018-02-22T09:50:02.279Z,69376.00
2018-02-22T09:51:54.119Z,50944.00
2018-02-22T09:52:54.054Z,64864.00
2018-02-22T09:54:45.852Z,68640.00
2018-02-22T09:55:45.748Z,63040.00
2018-02-22T09:57:37.545Z,43296.00
2018-02-22T09:58:37.497Z,62944.00
2018-02-22T10:00:29.326Z,25792.00
2018-02-22T10:01:29.469Z,22496.00
2018-02-22T10:03:21.057Z,30880.00
2018-02-22T10:04:21.007Z,28928.00
2018-02-22T10:06:12.811Z,29824.00
2018-02-22T10:07:12.732Z,31456.00
2018-02-22T10:09:04.520Z,62432.00
2018-02-22T10:10:04.452Z,47264.00
2018-02-22T10:11:56.452Z,41344.00
2018-02-22T10:12:56.370Z,28192.00
2018-02-22T10:14:48.192Z,30144.00
2018-02-22T10:15:48.130Z,42240.00
2018-02-22T10:17:39.897Z,47552.00
2018-02-22T10:18:39.800Z,51904.00
2018-02-22T10:20:31.604Z,37504.00
2018-02-22T10:21:31.517Z,53440.00
2018-02-22T10:23:23.338Z,41408.00
2018-02-22T10:24:23.284Z,28416.00
2018-02-22T10:26:15.021Z,17216.00
2018-02-22T10:27:14.990Z,23296.00
2018-02-22T10:29:06.814Z,22016.00
2018-02-22T10:30:06.733Z,60960.00
2018-02-22T10:31:58.601Z,50144.00
2018-02-22T10:32:58.522Z,21248.00
2018-02-22T10:34:50.371Z,44064.00
2018-02-22T10:35:50.232Z,44544.00
2018-02-22T10:37:42.049Z,35104.00
2018-02-22T10:38:41.963Z,36416.00
2018-02-22T10:40:33.755Z,49152.00
2018-02-22T10:41:33.727Z,49888.00
2018-02-22T10:43:25.437Z,57152.00
2018-02-22T10:44:25.380Z,57088.00
2018-02-22T10:46:17.140Z,58848.00
2018-02-22T10:47:17.132Z,57568.00
2018-02-22T10:49:08.869Z,53024.00
2018-02-22T10:50:08.828Z,52000.00
2018-02-22T10:52:00.601Z,49568.00
2018-02-22T10:53:00.577Z,48224.00
2018-02-22T10:54:52.305Z,40096.00
2018-02-22T10:55:52.285Z,35808.00
2018-02-22T10:57:44.075Z,25280.00
2018-02-22T10:58:43.948Z,22400.00
2018-02-22T11:00:35.703Z,18496.00
2018-02-22T11:01:35.689Z,18432.00
2018-02-22T11:03:27.449Z,18432.00
2018-02-22T11:04:27.392Z,18496.00
2018-02-22T11:06:19.131Z,18112.00
2018-02-22T11:07:19.074Z,18112.00
2018-02-22T11:09:10.920Z,24864.00
2018-02-22T11:10:10.830Z,23712.00
2018-02-22T11:12:02.618Z,24832.00
2018-02-22T11:13:02.601Z,27648.00
2018-02-22T11:14:54.337Z,35072.00
2018-02-22T11:15:54.235Z,28544.00
2018-02-22T11:17:45.999Z,28064.00
2018-02-22T11:18:45.964Z,22624.00
2018-02-22T11:20:37.732Z,20992.00
2018-02-22T11:21:37.648Z,21248.00
2018-02-22T11:23:29.507Z,20864.00
2018-02-22T11:24:29.440Z,20768.00
2018-02-22T11:26:21.145Z,31072.00
2018-02-22T11:27:21.081Z,19872.00
2018-02-22T11:29:12.851Z,21056.00
2018-02-22T11:30:12.777Z,19360.00
2018-02-22T11:32:04.594Z,20384.00
2018-02-22T11:33:04.510Z,19776.00
2018-02-22T11:34:56.339Z,23456.00
2018-02-22T11:35:56.224Z,18816.00
2018-02-22T11:37:47.985Z,16224.00
2018-02-22T11:38:47.919Z,17600.00
2018-02-22T11:40:39.812Z,11948.00
2018-02-22T11:41:39.695Z,10832.00
2018-02-22T11:43:31.493Z,10060.00
2018-02-22T11:44:31.559Z,9696.00
2018-02-22T11:46:23.382Z,8848.00
2018-02-22T11:47:23.165Z,8636.00
2018-02-22T11:49:14.967Z,8648.00
2018-02-22T11:50:14.874Z,8772.00
2018-02-22T11:52:06.698Z,8988.00
2018-02-22T11:53:06.569Z,9120.00
2018-02-22T11:54:58.350Z,9340.00
2018-02-22T11:55:58.277Z,9468.00
2018-02-22T11:57:50.200Z,9856.00
2018-02-22T11:58:50.011Z,10116.00
2018-02-22T12:00:41.817Z,10440.00
2018-02-22T12:01:41.724Z,10332.00
2018-02-22T12:03:33.607Z,9688.00
2018-02-22T12:04:33.424Z,9580.00
2018-02-22T12:06:25.339Z,9960.00
2018-02-22T12:07:25.153Z,10116.00
2018-02-22T12:09:17.025Z,10208.00
2018-02-22T12:10:16.971Z,10256.00
2018-02-22T12:12:08.739Z,9696.00
2018-02-22T12:13:08.680Z,9564.00
2018-02-22T12:15:00.501Z,9864.00
2018-02-22T12:16:00.573Z,9992.00
2018-02-22T12:17:52.289Z,10440.00
2018-02-22T12:18:52.305Z,10964.00
2018-02-22T12:20:43.948Z,12428.00
2018-02-22T12:21:43.862Z,12780.00
2018-02-22T12:23:35.803Z,13252.00
2018-02-22T12:24:35.791Z,12928.00
2018-02-22T12:26:27.609Z,12688.00
2018-02-22T12:27:27.515Z,12476.00
2018-02-22T12:29:19.308Z,11244.00
2018-02-22T12:30:19.252Z,11136.00
2018-02-22T12:32:11.062Z,11088.00
2018-02-22T12:33:10.957Z,11116.00
2018-02-22T12:35:02.767Z,11128.00
2018-02-22T12:36:02.668Z,11108.00
2018-02-22T12:37:54.478Z,10824.00
2018-02-22T12:38:54.345Z,10504.00
2018-02-22T12:40:46.145Z,10256.00
2018-02-22T12:41:46.081Z,10180.00
2018-02-22T12:43:37.925Z,10056.00
2018-02-22T12:44:37.930Z,10148.00
2018-02-22T12:46:29.662Z,9760.00
2018-02-22T12:47:29.591Z,9524.00
2018-02-22T12:49:21.356Z,8948.00
2018-02-22T12:50:21.277Z,8588.00
2018-02-22T12:52:13.117Z,8040.00
2018-02-22T12:53:12.974Z,7952.00
2018-02-22T12:55:04.761Z,8136.00
2018-02-22T12:56:04.675Z,8316.00
2018-02-22T12:57:56.474Z,8500.00
2018-02-22T12:58:56.390Z,8568.00
2018-02-22T13:00:48.176Z,8764.00
2018-02-22T13:01:48.123Z,8788.00
2018-02-22T13:03:39.868Z,9004.00
2018-02-22T13:04:39.783Z,9124.00
2018-02-22T13:06:31.586Z,8420.00
2018-02-22T13:07:31.503Z,8252.00
2018-02-22T13:09:23.331Z,8080.00
2018-02-22T13:10:23.267Z,7972.00
2018-02-22T13:12:15.057Z,7684.00
2018-02-22T13:13:14.946Z,7360.00
2018-02-22T13:15:06.729Z,6896.00
2018-02-22T13:16:06.638Z,6640.00
2018-02-22T13:17:58.504Z,6508.00
2018-02-22T13:18:58.515Z,6604.00
2018-02-22T13:20:50.291Z,6848.00
2018-02-22T13:21:50.203Z,6988.00
2018-02-22T13:23:41.969Z,7188.00
2018-02-22T13:24:41.907Z,7156.00
2018-02-22T13:26:33.672Z,6892.00
2018-02-22T13:27:33.676Z,6860.00
2018-02-22T13:29:25.380Z,7128.00
2018-02-22T13:30:25.314Z,7476.00
2018-02-22T13:32:17.141Z,9096.00
2018-02-22T13:33:17.062Z,8320.00
2018-02-22T13:35:08.827Z,8408.00
2018-02-22T13:36:08.756Z,8124.00
2018-02-22T13:38:00.507Z,8716.00
2018-02-22T13:39:00.437Z,8792.00
2018-02-22T13:40:52.228Z,8756.00
2018-02-22T13:41:52.143Z,8068.00
2018-02-22T13:43:43.916Z,7108.00
2018-02-22T13:44:43.877Z,6740.00
2018-02-22T13:46:35.634Z,6088.00
2018-02-22T13:47:35.568Z,5816.00
2018-02-22T13:49:27.349Z,5824.00
2018-02-22T13:50:27.256Z,5576.00
2018-02-22T13:52:19.052Z,5420.00
2018-02-22T13:53:18.931Z,5340.00
2018-02-22T13:55:10.746Z,5100.00
2018-02-22T13:56:10.674Z,5008.00
2018-02-22T13:58:02.464Z,4944.00
2018-02-22T13:59:02.397Z,4892.00
2018-02-22T14:00:54.313Z,4704.00
2018-02-22T14:01:54.077Z,4612.00
2018-02-22T14:03:45.834Z,4632.00
2018-02-22T14:04:45.766Z,4704.00
2018-02-22T14:06:37.567Z,4824.00
2018-02-22T14:07:37.469Z,4860.00
2018-02-22T14:09:29.273Z,4912.00
2018-02-22T14:10:29.225Z,4944.00
2018-02-22T14:12:20.989Z,4960.00
2018-02-22T14:13:20.914Z,4940.00
2018-02-22T14:15:12.744Z,4896.00
2018-02-22T14:16:12.658Z,4880.00
2018-02-22T14:18:04.414Z,4852.00
2018-02-22T14:19:04.345Z,4836.00
2018-02-22T14:20:56.119Z,4836.00
2018-02-22T14:21:56.080Z,4860.00
2018-02-22T14:23:47.817Z,4784.00
2018-02-22T14:24:47.770Z,4676.00
2018-02-22T14:26:39.578Z,4352.00
2018-02-22T14:27:39.445Z,4140.00
2018-02-22T14:29:31.221Z,3784.00
2018-02-22T14:30:31.138Z,3680.00
2018-02-22T14:32:22.923Z,3580.00
2018-02-22T14:33:22.847Z,3492.00
2018-02-22T14:35:14.621Z,3252.00
2018-02-22T14:36:14.549Z,3168.00
2018-02-22T14:38:06.300Z,3116.00
2018-02-22T14:39:06.221Z,3112.00
2018-02-22T14:40:57.995Z,3120.00
2018-02-22T14:41:57.914Z,3112.00
2018-02-22T14:43:49.678Z,2992.00
2018-02-22T14:44:49.600Z,2872.00
2018-02-22T14:46:41.428Z,2628.00
2018-02-22T14:47:41.282Z,2512.00
2018-02-22T14:49:33.043Z,2380.00
2018-02-22T14:50:32.965Z,2380.00
2018-02-22T14:52:24.738Z,2392.00
2018-02-22T14:53:24.671Z,2384.00
2018-02-22T14:55:17.050Z,2328.00
2018-02-22T14:56:16.556Z,2300.00
2018-02-22T14:58:08.237Z,2264.00
2018-02-22T14:59:08.168Z,2224.00
2018-02-22T15:00:59.971Z,2156.00
2018-02-22T15:01:59.859Z,2124.00
2018-02-22T15:03:51.626Z,2084.00
2018-02-22T15:04:51.546Z,2060.00
2018-02-22T15:06:43.369Z,1996.00
2018-02-22T15:07:43.346Z,1964.00
2018-02-22T15:09:35.129Z,1912.00
2018-02-22T15:10:35.096Z,1888.00
2018-02-22T15:12:26.804Z,1812.00
2018-02-22T15:13:26.738Z,1756.00
2018-02-22T15:15:18.502Z,1700.00
2018-02-22T15:16:18.414Z,1676.00
2018-02-22T15:18:10.195Z,1664.00
2018-02-22T15:19:10.118Z,1660.00
2018-02-22T15:21:01.911Z,1680.00
2018-02-22T15:22:01.781Z,1704.00
2018-02-22T15:23:53.649Z,1760.00
2018-02-22T15:24:53.537Z,1768.00
2018-02-22T15:26:45.289Z,1712.00
2018-02-22T15:27:45.221Z,1676.00
2018-02-22T15:29:37.400Z,1612.00
2018-02-22T15:30:37.306Z,1572.00
2018-02-22T15:32:29.094Z,1516.00
2018-02-22T15:33:28.979Z,1488.00
2018-02-22T15:35:20.743Z,1456.00
2018-02-22T15:36:20.731Z,1392.00
2018-02-22T15:38:12.483Z,1300.00
2018-02-22T15:39:12.424Z,1244.00
2018-02-22T15:41:04.130Z,1164.00
2018-02-22T15:42:04.498Z,1136.00
2018-02-22T15:43:55.843Z,1096.00
2018-02-22T15:44:55.761Z,1072.00
2018-02-22T15:46:47.661Z,1016.00
2018-02-22T15:47:47.446Z,996.00
2018-02-22T15:49:39.219Z,944.00
2018-02-22T15:50:39.143Z,912.00
2018-02-22T15:52:30.931Z,844.00
2018-02-22T15:53:30.862Z,808.00
2018-02-22T15:55:22.639Z,760.00
2018-02-22T15:56:22.561Z,728.00
2018-02-22T15:58:14.388Z,680.00
2018-02-22T15:59:14.294Z,660.00
2018-02-22T16:01:06.068Z,616.00
2018-02-22T16:02:05.993Z,596.00
2018-02-22T16:03:57.813Z,556.00
2018-02-22T16:04:57.658Z,536.00
2018-02-22T16:06:49.428Z,508.00
2018-02-22T16:07:49.348Z,484.00
2018-02-22T16:09:41.302Z,428.00
2018-02-22T16:10:41.223Z,400.00
2018-02-22T16:12:32.894Z,352.00
2018-02-22T16:13:32.796Z,332.00
2018-02-22T16:15:24.868Z,296.00
2018-02-22T16:16:24.714Z,284.00
2018-02-22T16:18:16.591Z,256.00
2018-02-22T16:19:16.384Z,244.00
2018-02-22T16:21:08.324Z,224.00
2018-02-22T16:22:08.114Z,212.00
2018-02-22T16:24:00.618Z,192.00
2018-02-22T16:25:00.527Z,188.00
2018-02-22T16:26:52.845Z,164.00
2018-02-22T16:27:52.752Z,152.00
2018-02-22T16:29:45.179Z,128.00
2018-02-22T16:30:45.110Z,120.00
2018-02-22T16:32:37.018Z,100.00
2018-02-22T16:33:36.793Z,88.00
2018-02-22T16:35:28.688Z,76.00
2018-02-22T16:36:28.620Z,72.00
2018-02-22T16:38:20.357Z,56.00
2018-02-22T16:39:20.279Z,52.00
2018-02-22T16:41:12.072Z,40.00
2018-02-22T16:42:11.987Z,36.00
2018-02-22T16:44:03.741Z,32.00
2018-02-22T16:45:03.668Z,28.00
2018-02-22T16:46:55.444Z,20.00
2018-02-22T16:47:55.360Z,16.00
2018-02-22T16:49:47.141Z,16.00
2018-02-22T16:50:47.040Z,12.00
2018-02-22T16:52:38.773Z,8.00
2018-02-22T16:53:38.704Z,8.00
2018-02-22T16:55:30.465Z,8.00
2018-02-22T16:56:30.384Z,4.00
2018-02-22T16:58:22.154Z,4.00
2018-02-22T16:59:22.083Z,4.00
2018-02-22T17:01:13.836Z,4.00
2018-02-22T17:02:13.749Z,0.00
2018-02-22T17:04:05.493Z,4.00
2018-02-22T17:05:05.454Z,4.00
2018-02-22T17:06:57.181Z,0.00
2018-02-22T17:07:57.104Z,0.00
2018-02-22T17:09:48.835Z,0.00
2018-02-22T17:10:48.804Z,0.00
2018-02-22T17:12:40.516Z,0.00
2018-02-22T17:13:40.455Z,0.00
2018-02-22T17:15:32.175Z,0.00
2018-02-22T17:16:32.106Z,0.00
2018-02-22T17:18:23.889Z,0.00
2018-02-22T17:19:23.784Z,0.00
2018-02-22T17:21:15.533Z,0.00
2018-02-22T17:22:15.495Z,0.00
2018-02-22T17:24:07.224Z,0.00
2018-02-22T17:25:07.150Z,0.00
2018-02-22T17:26:58.865Z,0.00
2018-02-22T17:27:58.790Z,0.00
2018-02-22T17:29:50.573Z,0.00
2018-02-22T17:30:50.503Z,0.00
2018-02-22T17:32:42.290Z,0.00
2018-02-22T17:33:42.214Z,0.00
2018-02-22T17:35:33.955Z,0.00
2018-02-22T17:36:33.881Z,0.00
2018-02-22T17:38:25.643Z,0.00
2018-02-22T17:39:25.577Z,0.00
2018-02-22T17:41:17.313Z,0.00
2018-02-22T17:42:17.229Z,0.00
2018-02-22T17:44:08.976Z,0.00
2018-02-22T17:45:08.903Z,0.00
2018-02-22T17:47:00.652Z,0.00
2018-02-22T17:48:00.588Z,0.00
2018-02-22T17:49:52.327Z,0.00
2018-02-22T17:50:52.248Z,0.00